createdAt,value
2023-04-10T00:02:26.294Z,64.60
2023-04-10T00:04:53.790Z,64.50
2023-04-10T00:07:21.090Z,64.50
2023-04-10T00:09:48.486Z,64.60
2023-04-10T00:12:16.009Z,64.80
2023-04-10T00:14:43.251Z,64.90
2023-04-10T00:17:10.546Z,64.80
2023-04-10T00:19:37.891Z,64.60
2023-04-10T00:22:05.810Z,64.60
2023-04-10T00:24:34.133Z,65.20
2023-04-10T00:27:01.486Z,65.40
2023-04-10T00:29:28.790Z,65.30
2023-04-10T00:31:56.089Z,65.30
2023-04-10T00:34:24.265Z,65.30
2023-04-10T00:36:51.486Z,65.20
2023-04-10T00:39:19.287Z,65.10
2023-04-10T00:41:46.601Z,65.20
2023-04-10T00:44:13.813Z,65.10
2023-04-10T00:46:41.525Z,65.10
2023-04-10T00:49:09.610Z,65.20
2023-04-10T00:51:37.477Z,65.40
2023-04-10T00:54:04.862Z,65.60
2023-04-10T00:56:32.344Z,65.80
2023-04-10T00:59:00.287Z,66.30
2023-04-10T01:01:27.600Z,66.20
2023-04-10T01:03:56.052Z,66.30
2023-04-10T01:06:56.442Z,66.20
2023-04-10T01:09:46.383Z,67.20
2023-04-10T01:12:28.489Z,66.20
2023-04-10T01:15:20.979Z,66.40
2023-04-10T01:17:51.326Z,66.50
2023-04-10T01:20:23.470Z,66.00
2023-04-10T01:23:28.008Z,66.30
2023-04-10T01:26:06.682Z,66.70
2023-04-10T01:28:53.620Z,66.40
2023-04-10T01:31:28.452Z,66.50
2023-04-10T01:34:04.648Z,66.60
2023-04-10T01:36:37.829Z,66.70
2023-04-10T01:39:08.251Z,67.00
2023-04-10T01:41:36.974Z,67.00
2023-04-10T01:44:05.981Z,67.00
2023-04-10T01:46:33.939Z,66.90
2023-04-10T01:49:03.253Z,67.10
2023-04-10T01:51:31.462Z,66.90
2023-04-10T01:54:02.176Z,67.00
2023-04-10T01:56:30.129Z,67.10
2023-04-10T01:58:57.911Z,67.00
2023-04-10T02:01:29.541Z,67.00
2023-04-10T02:03:59.223Z,66.80
2023-04-10T02:06:34.488Z,67.10
2023-04-10T02:09:18.026Z,67.20
2023-04-10T02:11:58.361Z,67.20
2023-04-10T02:14:32.423Z,67.20
2023-04-10T02:17:02.598Z,66.90
2023-04-10T02:19:31.847Z,66.90
2023-04-10T02:21:59.526Z,66.90
2023-04-10T02:24:27.407Z,67.10
2023-04-10T02:26:54.661Z,67.10
2023-04-10T02:29:23.673Z,67.20
2023-04-10T02:31:50.982Z,67.20
2023-04-10T02:34:18.695Z,67.10
2023-04-10T02:36:45.910Z,67.10
2023-04-10T02:39:13.437Z,67.30
2023-04-10T02:41:48.709Z,67.70
2023-04-10T02:44:16.363Z,67.80
2023-04-10T02:46:44.349Z,67.80
2023-04-10T02:49:13.637Z,67.70
2023-04-10T02:51:40.976Z,67.70
2023-04-10T02:54:08.748Z,68.20
2023-04-10T02:56:39.821Z,68.30
2023-04-10T02:59:07.972Z,68.60
2023-04-10T03:01:35.824Z,68.40
2023-04-10T03:04:04.374Z,68.30
2023-04-10T03:06:36.961Z,68.10
2023-04-10T03:09:04.258Z,68.20
2023-04-10T03:11:34.263Z,68.40
2023-04-10T03:14:01.978Z,68.40
2023-04-10T03:16:29.443Z,68.50
2023-04-10T03:18:57.630Z,68.60
2023-04-10T03:21:25.072Z,68.70
2023-04-10T03:23:52.556Z,68.70
2023-04-10T03:26:20.866Z,68.50
2023-04-10T03:28:48.253Z,68.60
2023-04-10T03:31:15.660Z,68.70
2023-04-10T03:33:44.929Z,69.20
2023-04-10T03:36:12.473Z,69.30
2023-04-10T03:38:39.707Z,69.20
2023-04-10T03:41:09.492Z,69.20
2023-04-10T03:43:36.826Z,69.10
2023-04-10T03:46:05.677Z,68.90
2023-04-10T03:48:34.442Z,68.80
2023-04-10T03:51:02.290Z,68.70
2023-04-10T03:53:29.564Z,68.80
2023-04-10T03:55:56.854Z,68.80
2023-04-10T03:58:25.610Z,69.00
2023-04-10T04:00:55.414Z,69.00
2023-04-10T04:03:32.331Z,69.00
2023-04-10T04:05:59.737Z,69.00
2023-04-10T04:08:36.254Z,69.00
2023-04-10T04:11:12.981Z,68.80
2023-04-10T04:13:54.711Z,68.60
2023-04-10T04:16:40.573Z,68.40
2023-04-10T04:19:28.105Z,68.30
2023-04-10T04:22:21.795Z,68.40
2023-04-10T04:25:01.160Z,68.50
2023-04-10T04:27:46.986Z,68.50
2023-04-10T04:30:36.660Z,68.40
2023-04-10T04:33:24.120Z,68.40
2023-04-10T04:35:58.982Z,68.80
2023-04-10T04:38:38.492Z,69.00
2023-04-10T04:41:32.177Z,69.00
2023-04-10T04:44:22.361Z,69.10
2023-04-10T04:47:15.681Z,69.00
2023-04-10T04:50:01.353Z,69.20
2023-04-10T04:52:51.418Z,69.30
2023-04-10T04:55:26.299Z,69.50
2023-04-10T04:57:57.377Z,69.40
2023-04-10T05:00:31.747Z,69.50
2023-04-10T05:03:17.727Z,70.10
2023-04-10T05:06:14.271Z,70.30
2023-04-10T05:08:55.126Z,70.60
2023-04-10T05:11:46.192Z,70.90
2023-04-10T05:14:39.540Z,70.90
2023-04-10T05:17:18.609Z,70.70
2023-04-10T05:20:09.885Z,70.50
2023-04-10T05:22:45.806Z,69.90
2023-04-10T05:25:28.090Z,69.10
2023-04-10T05:28:11.885Z,68.30
2023-04-10T05:31:08.739Z,67.20
2023-04-10T05:33:39.051Z,66.20
2023-04-10T05:36:29.356Z,65.30
2023-04-10T05:39:23.134Z,64.50
2023-04-10T05:42:10.026Z,63.50
2023-04-10T05:44:50.828Z,62.40
2023-04-10T05:47:41.559Z,61.20
2023-04-10T05:50:19.172Z,60.00
2023-04-10T05:53:05.418Z,59.00
2023-04-10T05:55:44.734Z,58.00
2023-04-10T05:58:38.309Z,57.30
2023-04-10T06:01:14.683Z,57.00
2023-04-10T06:03:51.296Z,56.30
2023-04-10T06:06:21.266Z,55.40
2023-04-10T06:08:48.613Z,54.80
2023-04-10T06:11:16.033Z,54.70
2023-04-10T06:13:47.873Z,54.00
2023-04-10T06:16:16.378Z,53.10
2023-04-10T06:18:45.365Z,52.40
2023-04-10T06:21:12.698Z,51.30
2023-04-10T06:23:40.819Z,50.40
2023-04-10T06:26:08.403Z,50.20
2023-04-10T06:28:35.831Z,49.70
2023-04-10T06:31:07.167Z,49.10
2023-04-10T06:33:37.104Z,48.40
2023-04-10T06:36:07.120Z,48.10
2023-04-10T06:38:40.444Z,47.80
2023-04-10T06:41:08.492Z,47.00
2023-04-10T06:43:37.896Z,46.60
2023-04-10T06:46:06.018Z,46.20
2023-04-10T06:48:33.681Z,45.90
2023-04-10T06:51:01.063Z,45.10
2023-04-10T06:53:28.525Z,44.50
2023-04-10T06:55:56.781Z,43.70
2023-04-10T06:58:24.505Z,43.90
2023-04-10T07:00:51.997Z,43.70
2023-04-10T07:03:19.601Z,43.20
2023-04-10T07:05:47.012Z,42.30
2023-04-10T07:08:14.329Z,42.30
2023-04-10T07:10:41.721Z,41.80
2023-04-10T07:13:08.986Z,40.60
2023-04-10T07:15:36.386Z,40.70
2023-04-10T07:18:03.796Z,39.60
2023-04-10T07:20:31.104Z,39.40
2023-04-10T07:22:58.340Z,39.90
2023-04-10T07:25:25.818Z,40.40
2023-04-10T07:27:53.241Z,40.10
2023-04-10T07:30:20.719Z,39.90
2023-04-10T07:32:48.250Z,40.10
2023-04-10T07:35:15.753Z,39.70
2023-04-10T07:37:44.105Z,39.70
2023-04-10T07:40:11.956Z,39.70
2023-04-10T07:42:39.372Z,39.30
2023-04-10T07:45:07.269Z,40.00
2023-04-10T07:47:34.649Z,40.70
2023-04-10T07:50:02.014Z,40.40
2023-04-10T07:52:29.258Z,39.90
2023-04-10T07:54:56.727Z,40.30
2023-04-10T07:57:24.668Z,40.20
2023-04-10T07:59:52.014Z,40.60
2023-04-10T08:02:19.474Z,40.60
2023-04-10T08:04:47.216Z,40.50
2023-04-10T08:07:14.673Z,40.20
2023-04-10T08:09:41.913Z,40.00
2023-04-10T08:12:09.161Z,40.10
2023-04-10T08:14:36.605Z,39.60
2023-04-10T08:17:04.122Z,39.60
2023-04-10T08:19:31.584Z,39.60
2023-04-10T08:21:58.946Z,39.30
2023-04-10T08:24:26.228Z,39.60
2023-04-10T08:26:53.603Z,39.80
2023-04-10T08:31:49.636Z,39.00
2023-04-10T08:34:17.002Z,38.90
2023-04-10T08:36:44.335Z,39.00
2023-04-10T08:39:11.675Z,39.70
2023-04-10T08:41:41.358Z,40.40
2023-04-10T08:44:08.775Z,39.40
2023-04-10T08:46:40.104Z,39.20
2023-04-10T08:49:10.666Z,39.00
2023-04-10T08:51:48.688Z,38.70
2023-04-10T08:54:25.492Z,38.60
2023-04-10T08:56:55.519Z,39.40
2023-04-10T08:59:23.095Z,39.00
2023-04-10T09:01:50.606Z,39.00
2023-04-10T09:04:18.452Z,38.50
2023-04-10T09:06:46.187Z,38.50
2023-04-10T09:09:13.570Z,38.10
2023-04-10T09:11:53.967Z,38.90
2023-04-10T09:14:22.757Z,38.50
2023-04-10T09:16:51.941Z,39.20
2023-04-10T09:19:31.762Z,39.00
2023-04-10T09:21:59.522Z,38.50
2023-04-10T09:24:27.412Z,38.50
2023-04-10T09:26:55.326Z,39.20
2023-04-10T09:29:22.669Z,39.30
2023-04-10T09:31:51.322Z,39.50
2023-04-10T09:34:22.259Z,39.30
2023-04-10T09:36:58.067Z,39.90
2023-04-10T09:39:36.165Z,40.00
2023-04-10T09:42:03.759Z,39.80
2023-04-10T09:44:37.333Z,39.70
2023-04-10T09:47:14.607Z,40.30
2023-04-10T09:49:53.406Z,40.40
2023-04-10T09:52:28.804Z,40.40
2023-04-10T09:55:01.394Z,41.20
2023-04-10T09:57:30.853Z,41.10
2023-04-10T10:00:00.444Z,41.50
2023-04-10T10:02:33.945Z,41.80
2023-04-10T10:05:04.050Z,41.30
2023-04-10T10:07:31.682Z,41.40
2023-04-10T10:10:00.623Z,41.50
2023-04-10T10:12:45.908Z,41.80
2023-04-10T10:15:19.637Z,42.20
2023-04-10T10:18:11.560Z,42.50
2023-04-10T10:20:41.985Z,42.60
2023-04-10T10:23:09.512Z,43.20
2023-04-10T10:25:37.689Z,43.50
2023-04-10T10:28:05.899Z,43.60
2023-04-10T10:30:34.317Z,45.00
2023-04-10T10:33:06.608Z,45.10
2023-04-10T10:35:35.983Z,45.20
2023-04-10T10:38:04.656Z,45.90
2023-04-10T10:40:53.589Z,45.50
2023-04-10T10:43:37.539Z,45.00
2023-04-10T10:46:09.383Z,44.70
2023-04-10T10:48:36.889Z,45.30
2023-04-10T10:51:04.351Z,45.50
2023-04-10T10:53:42.673Z,45.20
2023-04-10T10:56:37.081Z,45.30
2023-04-10T10:59:04.559Z,45.30
2023-04-10T11:01:32.015Z,45.10
2023-04-10T11:04:00.234Z,45.10
2023-04-10T11:06:51.325Z,45.60
2023-04-10T11:09:54.435Z,45.80
2023-04-10T11:12:25.381Z,44.80
2023-04-10T11:15:00.337Z,44.20
2023-04-10T11:17:47.774Z,44.60
2023-04-10T11:20:15.654Z,44.40
2023-04-10T11:23:12.704Z,44.00
2023-04-10T11:25:54.610Z,44.40
2023-04-10T11:28:35.987Z,44.40
2023-04-10T11:31:20.667Z,44.40
2023-04-10T11:33:54.394Z,44.10
2023-04-10T11:36:21.788Z,44.00
2023-04-10T11:39:09.635Z,44.10
2023-04-10T11:41:39.566Z,44.20
2023-04-10T11:44:10.385Z,44.10
2023-04-10T11:46:39.437Z,43.40
2023-04-10T11:49:09.581Z,42.10
2023-04-10T11:51:38.686Z,42.40
2023-04-10T11:54:22.070Z,42.60
2023-04-10T11:57:05.969Z,41.90
2023-04-10T11:59:33.976Z,42.50
2023-04-10T12:02:08.893Z,42.20
2023-04-10T12:04:36.648Z,42.40
2023-04-10T12:07:04.264Z,42.70
2023-04-10T12:09:31.853Z,42.10
2023-04-10T12:12:09.193Z,42.10
2023-04-10T12:14:39.434Z,42.10
2023-04-10T12:17:08.573Z,41.80
2023-04-10T12:19:38.843Z,42.60
2023-04-10T12:22:07.514Z,42.00
2023-04-10T12:24:46.473Z,42.50
2023-04-10T12:27:21.672Z,41.90
2023-04-10T12:29:51.216Z,41.60
2023-04-10T12:32:19.275Z,41.10
2023-04-10T12:34:57.151Z,40.90
2023-04-10T12:37:49.483Z,39.90
2023-04-10T12:40:18.101Z,40.70
2023-04-10T12:42:45.666Z,40.20
2023-04-10T12:45:14.445Z,40.00
2023-04-10T12:47:53.710Z,40.30
2023-04-10T12:50:21.202Z,40.60
2023-04-10T12:53:08.035Z,40.40
2023-04-10T12:55:35.513Z,41.30
2023-04-10T12:58:21.367Z,40.40
2023-04-10T13:00:49.063Z,39.70
2023-04-10T13:03:16.518Z,40.30
2023-04-10T13:05:44.835Z,39.40
2023-04-10T13:08:12.217Z,39.70
2023-04-10T13:10:40.527Z,40.30
2023-04-10T13:13:08.305Z,39.70
2023-04-10T13:15:35.686Z,39.70
2023-04-10T13:18:05.694Z,39.50
2023-04-10T13:20:38.995Z,39.90
2023-04-10T13:23:07.853Z,39.70
2023-04-10T13:25:39.822Z,39.40
2023-04-10T13:28:11.442Z,38.20
2023-04-10T13:30:41.248Z,37.90
2023-04-10T13:33:09.620Z,38.30
2023-04-10T13:35:37.230Z,38.70
2023-04-10T13:38:04.782Z,38.90
2023-04-10T13:40:32.114Z,38.90
2023-04-10T13:42:59.396Z,38.30
2023-04-10T13:45:26.833Z,38.00
2023-04-10T13:47:54.093Z,38.20
2023-04-10T13:50:21.414Z,39.20
2023-04-10T13:52:50.606Z,39.70
2023-04-10T13:55:19.542Z,39.20
2023-04-10T13:57:46.925Z,39.10
2023-04-10T14:00:14.867Z,39.10
2023-04-10T14:02:43.043Z,39.10
2023-04-10T14:05:10.724Z,38.80
2023-04-10T14:07:38.136Z,39.20
2023-04-10T14:10:06.250Z,39.40
2023-04-10T14:12:35.258Z,38.70
2023-04-10T14:15:03.553Z,38.80
2023-04-10T14:17:31.001Z,39.70
2023-04-10T14:19:58.258Z,39.90
2023-04-10T14:22:25.685Z,39.80
2023-04-10T14:25:01.744Z,39.40
2023-04-10T14:27:37.020Z,39.60
2023-04-10T14:30:04.966Z,40.50
2023-04-10T14:32:32.549Z,39.40
2023-04-10T14:34:59.855Z,39.10
2023-04-10T14:37:27.092Z,39.40
2023-04-10T14:39:54.447Z,38.70
2023-04-10T14:42:23.634Z,39.30
2023-04-10T14:44:51.091Z,39.10
2023-04-10T14:47:18.481Z,38.70
2023-04-10T14:49:45.748Z,39.40
2023-04-10T14:52:13.098Z,38.70
2023-04-10T14:54:40.383Z,39.00
2023-04-10T14:57:08.016Z,39.20
2023-04-10T14:59:35.589Z,39.20
2023-04-10T15:02:02.846Z,38.70
2023-04-10T15:04:30.271Z,38.80
2023-04-10T15:06:57.678Z,38.80
2023-04-10T15:09:25.248Z,39.00
2023-04-10T15:11:52.563Z,39.10
2023-04-10T15:14:20.205Z,39.00
2023-04-10T15:16:47.855Z,38.80
2023-04-10T15:19:15.386Z,39.00
2023-04-10T15:21:42.756Z,39.30
2023-04-10T15:24:10.267Z,39.10
2023-04-10T15:26:43.231Z,39.30
2023-04-10T15:29:10.897Z,39.40
2023-04-10T15:31:38.163Z,39.30
2023-04-10T15:34:05.716Z,39.60
2023-04-10T15:36:33.299Z,39.00
2023-04-10T15:39:02.718Z,38.80
2023-04-10T15:41:31.734Z,38.70
2023-04-10T15:43:59.282Z,38.80
2023-04-10T15:46:27.195Z,39.60
2023-04-10T15:48:54.743Z,39.30
2023-04-10T15:51:22.077Z,39.50
2023-04-10T15:53:49.309Z,39.70
2023-04-10T15:56:17.047Z,40.40
2023-04-10T15:58:44.479Z,40.00
2023-04-10T16:01:11.917Z,40.00
2023-04-10T16:03:39.321Z,40.10
2023-04-10T16:06:07.530Z,40.10
2023-04-10T16:08:35.422Z,40.20
2023-04-10T16:11:02.892Z,40.20
2023-04-10T16:13:30.225Z,39.90
2023-04-10T16:15:57.723Z,40.00
2023-04-10T16:18:25.092Z,39.90
2023-04-10T16:20:52.451Z,39.70
2023-04-10T16:23:19.798Z,39.10
2023-04-10T16:25:47.205Z,39.20
2023-04-10T16:28:14.605Z,39.60
2023-04-10T16:30:41.936Z,39.90
2023-04-10T16:33:09.373Z,40.00
2023-04-10T16:35:36.803Z,39.90
2023-04-10T16:38:04.201Z,40.10
2023-04-10T16:40:32.916Z,40.20
2023-04-10T16:43:01.702Z,40.40
2023-04-10T16:45:29.178Z,40.30
2023-04-10T16:47:56.569Z,40.60
2023-04-10T16:50:24.216Z,40.20
2023-04-10T16:52:51.736Z,40.10
2023-04-10T16:55:19.281Z,40.40
2023-04-10T16:57:46.651Z,40.40
2023-04-10T17:00:14.276Z,40.70
2023-04-10T17:02:42.786Z,41.00
2023-04-10T17:05:11.402Z,41.00
2023-04-10T17:07:38.819Z,40.90
2023-04-10T17:10:06.601Z,41.20
2023-04-10T17:12:33.999Z,41.10
2023-04-10T17:15:01.551Z,41.30
2023-04-10T17:17:29.117Z,41.90
2023-04-10T17:19:56.713Z,41.80
2023-04-10T17:22:24.170Z,41.40
2023-04-10T17:24:51.638Z,41.60
2023-04-10T17:27:19.093Z,41.80
2023-04-10T17:29:46.330Z,42.00
2023-04-10T17:32:13.637Z,42.10
2023-04-10T17:34:40.951Z,42.10
2023-04-10T17:37:08.333Z,42.40
2023-04-10T17:39:35.754Z,42.30
2023-04-10T17:42:03.265Z,42.50
2023-04-10T17:44:30.984Z,42.80
2023-04-10T17:46:58.399Z,42.60
2023-04-10T17:49:26.198Z,42.70
2023-04-10T17:51:53.577Z,42.50
2023-04-10T17:54:20.824Z,42.70
2023-04-10T17:56:48.210Z,42.70
2023-04-10T17:59:15.437Z,42.90
2023-04-10T18:01:42.832Z,42.80
2023-04-10T18:04:10.290Z,43.00
2023-04-10T18:06:37.799Z,43.20
2023-04-10T18:09:05.167Z,42.90
2023-04-10T18:11:32.796Z,42.90
2023-04-10T18:14:00.511Z,43.20
2023-04-10T18:16:27.955Z,43.10
2023-04-10T18:18:55.543Z,43.00
2023-04-10T18:21:23.114Z,43.20
2023-04-10T18:23:50.358Z,43.20
2023-04-10T18:26:20.747Z,43.30
2023-04-10T18:28:48.215Z,43.30
2023-04-10T18:31:16.604Z,43.40
2023-04-10T18:33:44.072Z,43.50
2023-04-10T18:36:13.800Z,43.30
2023-04-10T18:38:43.669Z,43.50
2023-04-10T18:41:10.926Z,43.70
2023-04-10T18:43:39.032Z,43.60
2023-04-10T18:46:06.854Z,43.60
2023-04-10T18:48:35.953Z,43.90
2023-04-10T18:51:03.595Z,44.00
2023-04-10T18:53:31.084Z,44.00
2023-04-10T18:55:58.512Z,44.00
2023-04-10T18:58:25.961Z,44.10
2023-04-10T19:00:53.733Z,44.10
2023-04-10T19:03:21.513Z,44.20
2023-04-10T19:05:49.268Z,44.30
2023-04-10T19:08:17.079Z,44.30
2023-04-10T19:10:44.453Z,44.40
2023-04-10T19:13:12.396Z,44.60
2023-04-10T19:15:45.983Z,45.60
2023-04-10T19:18:15.043Z,44.90
2023-04-10T19:20:50.916Z,44.90
2023-04-10T19:23:21.100Z,44.70
2023-04-10T19:25:52.937Z,44.80
2023-04-10T19:28:20.428Z,45.20
2023-04-10T19:30:47.953Z,45.10
2023-04-10T19:33:15.595Z,44.80
2023-04-10T19:35:42.911Z,44.70
2023-04-10T19:38:10.518Z,44.90
2023-04-10T19:40:38.062Z,44.70
2023-04-10T19:43:05.420Z,44.50
2023-04-10T19:45:36.900Z,44.50
2023-04-10T19:48:05.091Z,44.70
2023-04-10T19:50:32.928Z,44.70
2023-04-10T19:53:00.437Z,44.30
2023-04-10T19:55:27.827Z,44.60
2023-04-10T19:57:55.156Z,44.60
2023-04-10T20:00:22.483Z,44.60
2023-04-10T20:02:49.833Z,44.60
2023-04-10T20:05:17.355Z,44.80
2023-04-10T20:07:44.633Z,45.00
2023-04-10T20:10:12.222Z,45.00
2023-04-10T20:12:39.484Z,45.00
2023-04-10T20:15:07.566Z,45.00
2023-04-10T20:17:35.578Z,45.10
2023-04-10T20:20:03.449Z,44.90
2023-04-10T20:22:30.810Z,45.00
2023-04-10T20:24:58.330Z,45.20
2023-04-10T20:27:25.677Z,45.10
2023-04-10T20:29:52.971Z,45.20
2023-04-10T20:32:20.780Z,45.20
2023-04-10T20:34:48.027Z,45.30
2023-04-10T20:37:21.426Z,45.40
2023-04-10T20:39:49.139Z,45.50
2023-04-10T20:42:17.102Z,45.50
2023-04-10T20:44:44.437Z,45.70
2023-04-10T20:47:11.780Z,45.60
2023-04-10T20:49:39.113Z,45.70
2023-04-10T20:52:06.834Z,45.80
2023-04-10T20:54:34.234Z,45.90
2023-04-10T20:57:01.843Z,45.80
2023-04-10T20:59:29.450Z,45.80
2023-04-10T21:01:57.661Z,45.80
2023-04-10T21:04:25.321Z,46.00
2023-04-10T21:06:52.929Z,45.90
2023-04-10T21:09:20.496Z,45.90
2023-04-10T21:11:47.764Z,46.00
2023-04-10T21:14:15.191Z,45.90
2023-04-10T21:16:42.789Z,45.90
2023-04-10T21:19:10.387Z,46.00
2023-04-10T21:21:37.702Z,46.10
2023-04-10T21:24:05.332Z,45.90
2023-04-10T21:26:32.581Z,46.00
2023-04-10T21:29:00.024Z,46.00
2023-04-10T21:31:27.415Z,46.00
2023-04-10T21:33:54.815Z,46.10
2023-04-10T21:36:22.098Z,46.20
2023-04-10T21:38:49.284Z,46.30
2023-04-10T21:41:16.689Z,46.30
2023-04-10T21:43:44.130Z,46.40
2023-04-10T21:46:11.526Z,46.50
2023-04-10T21:48:39.008Z,46.60
2023-04-10T21:51:06.508Z,46.70
2023-04-10T21:53:33.794Z,46.90
2023-04-10T21:56:00.974Z,47.00
2023-04-10T21:58:28.410Z,47.00
2023-04-10T22:00:55.685Z,47.10
2023-04-10T22:03:24.061Z,47.10
2023-04-10T22:05:51.490Z,47.30
2023-04-10T22:08:20.058Z,47.50
2023-04-10T22:10:47.943Z,47.60
2023-04-10T22:13:27.442Z,47.70
2023-04-10T22:15:59.823Z,47.70
2023-04-10T22:18:27.242Z,47.90
2023-04-10T22:20:54.473Z,48.20
2023-04-10T22:23:21.805Z,48.10
2023-04-10T22:25:49.093Z,48.20
2023-04-10T22:28:16.535Z,48.10
2023-04-10T22:30:43.969Z,48.20
2023-04-10T22:33:12.029Z,48.30
2023-04-10T22:35:39.417Z,48.40
2023-04-10T22:38:07.645Z,48.30
2023-04-10T22:40:35.335Z,48.50
2023-04-10T22:43:03.011Z,48.70
2023-04-10T22:45:30.463Z,48.70
2023-04-10T22:47:57.926Z,48.80
2023-04-10T22:50:25.406Z,48.90
2023-04-10T22:52:52.608Z,49.20
2023-04-10T22:55:19.931Z,49.20
2023-04-10T22:57:49.258Z,49.30
2023-04-10T23:00:16.653Z,49.40
2023-04-10T23:02:44.110Z,49.60
2023-04-10T23:05:11.462Z,49.70
2023-04-10T23:07:38.646Z,49.70
2023-04-10T23:10:06.604Z,49.80
2023-04-10T23:12:33.794Z,49.80
2023-04-10T23:15:01.180Z,49.90
2023-04-10T23:17:28.373Z,50.00
2023-04-10T23:19:55.737Z,50.00
2023-04-10T23:22:23.153Z,50.20
2023-04-10T23:24:56.927Z,50.20
2023-04-10T23:27:24.169Z,50.30
2023-04-10T23:29:51.418Z,50.20
2023-04-10T23:32:18.716Z,50.00
2023-04-10T23:34:45.925Z,49.80
2023-04-10T23:37:13.319Z,49.90
2023-04-10T23:39:40.579Z,50.00
2023-04-10T23:42:07.857Z,50.00
2023-04-10T23:44:35.663Z,50.00
2023-04-10T23:47:03.252Z,50.20
2023-04-10T23:49:30.600Z,50.10
2023-04-10T23:51:58.061Z,50.20
2023-04-10T23:54:25.391Z,50.20
2023-04-10T23:56:52.721Z,50.30
2023-04-10T23:59:20.007Z,50.50
